Guthrie, Texas
Current Conditions -  °F | °C
As of 1:53 PM on Friday 28 Nov 2014 (Local Time) from KCDS Reporting Station
Clear Clear  
Wind Chill: 80°   Ceiling: Unl
Heat Index: 80°   Visibility: 10mi
Dew Point: 26°   Wind: 15mph
Humidity: 14%   Direction: 220°SW
Pressure: 29.9"   Gusts: NA
Location:  33.62°N, 100.32°W
Report Text: KCDS 281953Z AUTO 22013KT 10SM CLR 27/M03 A2990 RMK AO2 SLP114 T02671033
Loading
Personal Weather Stations






























Interactive Weather Map New forecast layout! Learn more

10-Day Weather Forecast

Advertisements
Track Severe Weather on mobile